»·PEaware :: N753B S49-S49

N753B :: S49-S49

FLIGHT INFORMATION

Flight Status: Arrived
Operator: Privately registered:
United States
More flights under this callsign
Pilot: Bill H. (23183)
Aircraft: CESSNA 172 SKYHAWK
(C172)
More flights by this aircraft type
Origin: S49 Miller Meml
United States
Destination: S49 Miller Meml
United States
More flights between these airports :: More routes between these airports
Route: REMAINING IN THE PATTERN
File this flight plan on PilotEdge
Remarks: Pattern Work
Altitude:
(Current/Filed)
1,500ft
Speed:
(Current/Filed)
115kts
Departed: 03-Feb-19 01:50 PM
Arrived: 03-Feb-19 02:48 PM
Distance/Time
Traveled:
0nm/0:58
Distance/Time
To Go:
Arrived

Flight Plot

Page will automatically refresh every two minutes.

Flight plan parsing failed; only flown route is shown


Map Options




Map Legend


Flown Route
Filed Route
Departure Airport
Arrival Airport
Navaid (VOR, NDB)
Fix

Horizontal Profiles

Position Reports

Time Latitude Longitude Heading Altitude Ground
Speed
03-Feb-19 13:31 43.966782 -117.251142 286 2250ft 0kts
03-Feb-19 13:32 43.966782 -117.251142 286 2250ft 0kts
03-Feb-19 13:33 43.966782 -117.251142 286 2250ft 0kts
03-Feb-19 13:34 43.966782 -117.251142 286 2250ft 0kts
03-Feb-19 13:35 43.966782 -117.251142 286 2250ft 0kts
03-Feb-19 13:36 43.966782 -117.251142 286 2250ft 0kts
03-Feb-19 13:37 43.966782 -117.251142 286 2250ft 0kts
03-Feb-19 13:38 43.966782 -117.251142 286 2250ft 0kts
03-Feb-19 13:39 43.966782 -117.251142 286 2250ft 0kts
03-Feb-19 13:40 43.966782 -117.251142 286 2250ft 0kts
03-Feb-19 13:41 43.966782 -117.251142 286 2250ft 0kts
03-Feb-19 13:42 43.966782 -117.251142 286 2250ft 0kts
03-Feb-19 13:43 43.966782 -117.251142 286 2250ft 0kts
03-Feb-19 13:44 43.966782 -117.251142 286 2250ft 0kts
03-Feb-19 13:45 43.967078 -117.251920 283 2251ft 0kts
03-Feb-19 13:46 43.967078 -117.251919 283 2251ft 0kts
03-Feb-19 13:47 43.967078 -117.251919 283 2251ft 0kts
03-Feb-19 13:48 43.966555 -117.252461 190 2251ft 20kts
03-Feb-19 13:49 43.946285 -117.264395 204 3017ft 81kts
03-Feb-19 13:50 43.937622 -117.294349 280 3806ft 84kts
03-Feb-19 13:51 43.966285 -117.292402 22 3598ft 115kts
03-Feb-19 13:52 43.997365 -117.267052 31 3363ft 107kts
03-Feb-19 13:53 44.015706 -117.238110 114 3103ft 97kts
03-Feb-19 13:54 44.004557 -117.205091 210 2617ft 98kts
03-Feb-19 13:55 43.998983 -117.238483 270 2460ft 71kts
03-Feb-19 13:56 44.013359 -117.245230 21 2731ft 75kts
03-Feb-19 13:57 44.014006 -117.255459 201 2633ft 89kts
03-Feb-19 13:58 43.992882 -117.245499 141 2646ft 77kts
03-Feb-19 13:59 43.970736 -117.251303 191 2365ft 64kts
03-Feb-19 14:00 43.951467 -117.257271 191 2563ft 69kts
03-Feb-19 14:02 43.938192 -117.274754 282 3253ft 81kts
03-Feb-19 14:03 43.958598 -117.283533 20 3344ft 99kts
03-Feb-19 14:04 43.990369 -117.262763 29 3467ft 109kts
03-Feb-19 14:05 44.012661 -117.227829 97 2824ft 110kts
03-Feb-19 14:06 43.991315 -117.232040 223 2565ft 71kts
03-Feb-19 14:07 43.975327 -117.250179 187 2407ft 64kts
03-Feb-19 14:08 43.953901 -117.256585 192 2522ft 73kts
03-Feb-19 14:09 43.939034 -117.275086 273 3262ft 83kts
03-Feb-19 14:10 43.960742 -117.282571 18 3327ft 98kts
03-Feb-19 14:11 43.988348 -117.266117 23 3267ft 98kts
03-Feb-19 14:12 43.977904 -117.250474 181 2464ft 59kts
03-Feb-19 14:13 43.959776 -117.254437 192 2272ft 62kts
03-Feb-19 14:14 43.957076 -117.255515 189 2377ft 61kts
03-Feb-19 14:15 43.944476 -117.272687 278 2814ft 92kts
03-Feb-19 14:16 43.969092 -117.281398 10 2970ft 94kts
03-Feb-19 14:16 43.994056 -117.274396 12 3138ft 93kts
03-Feb-19 14:18 43.976585 -117.254829 140 2659ft 74kts
03-Feb-19 14:19 43.956345 -117.256423 201 2451ft 61kts
03-Feb-19 14:20 43.942959 -117.272230 283 2968ft 79kts
03-Feb-19 14:20 43.955264 -117.296723 10 3265ft 100kts
03-Feb-19 14:21 43.986613 -117.285718 18 3479ft 100kts
03-Feb-19 14:23 43.988345 -117.256172 173 3008ft 100kts
03-Feb-19 14:24 43.965202 -117.252840 192 2284ft 52kts
03-Feb-19 14:24 43.949496 -117.256679 185 2578ft 65kts
03-Feb-19 14:25 43.924885 -117.265966 230 3319ft 91kts
03-Feb-19 14:26 43.935295 -117.305049 8 3644ft 116kts
03-Feb-19 14:27 43.968426 -117.284228 40 3431ft 109kts
03-Feb-19 14:28 43.995421 -117.254625 90 3232ft 100kts
03-Feb-19 14:29 43.975019 -117.250049 188 2569ft 79kts
03-Feb-19 14:30 43.959777 -117.254553 203 2327ft 65kts
03-Feb-19 14:31 43.959777 -117.254553 203 2327ft 65kts
03-Feb-19 14:32 43.959777 -117.254553 203 2327ft 65kts
03-Feb-19 14:33 43.959777 -117.254553 203 2327ft 65kts
03-Feb-19 14:34 43.959777 -117.254553 203 2327ft 65kts
03-Feb-19 14:35 43.959777 -117.254553 203 2327ft 65kts
03-Feb-19 14:36 43.959777 -117.254553 203 2327ft 65kts
03-Feb-19 14:37 43.959057 -117.263632 297 2552ft 82kts
03-Feb-19 14:38 43.984475 -117.268031 21 3170ft 98kts
03-Feb-19 14:39 43.982813 -117.249245 182 2693ft 113kts
03-Feb-19 14:40 43.958042 -117.255311 199 2385ft 70kts
03-Feb-19 14:41 43.943560 -117.264079 201 2886ft 88kts
03-Feb-19 14:42 43.928261 -117.294084 281 3360ft 96kts
03-Feb-19 14:43 43.942472 -117.318371 9 3665ft 84kts
03-Feb-19 14:44 43.970861 -117.307942 20 3693ft 96kts
03-Feb-19 14:45 43.994555 -117.283605 104 3361ft 112kts
03-Feb-19 14:46 43.979469 -117.250851 158 2661ft 100kts
03-Feb-19 14:47 43.959664 -117.254534 194 2254ft 10kts
03-Feb-19 14:48 43.963501 -117.253350 11 2251ft 31kts
03-Feb-19 14:49 43.966446 -117.250982 42 2250ft 4kts
03-Feb-19 14:50 43.966472 -117.250955 33 2250ft 0kts

Navigation Log

Ident Type
Flight plan parsing failed, navigation log unavailable